Time;durP1;ratioP1;P1;durP2;ratioP2;P2;SDS_P1;SDS_P2;PMS_P1;PMS_P2;Temp;Humidity;BMP_temperature;BMP_pressure;BME280_temperature;BME280_humidity;BME280_pressure;Samples;Min_cycle;Max_cycle;Signal;HPM_P1;HPM_P2
2021/04/12 00:01:16;;;;;;;22.03;7.90;;;11.60;69.90;;;;;;4901231;29;20623;-84
2021/04/12 00:04:04;;;;;;;17.13;7.53;;;11.60;69.30;;;;;;4900403;29;20185;-84
2021/04/12 00:06:43;;;;;;;13.45;7.93;;;11.60;69.60;;;;;;4900477;29;20189;-83
2021/04/12 00:09:19;;;;;;;16.33;8.00;;;11.60;69.90;;;;;;4899221;29;20236;-84
2021/04/12 00:11:54;;;;;;;17.58;6.75;;;11.60;69.70;;;;;;4898842;29;20192;-84
2021/04/12 00:14:35;;;;;;;14.52;7.72;;;11.60;69.50;;;;;;4900302;29;20192;-85
2021/04/12 00:17:06;;;;;;;14.88;7.50;;;11.60;69.60;;;;;;4901652;29;20300;-84
2021/04/12 00:20:02;;;;;;;11.55;7.57;;;11.60;70.00;;;;;;4900590;29;20192;-83
2021/04/12 00:22:37;;;;;;;16.45;7.82;;;11.60;70.60;;;;;;4900925;29;20177;-85
2021/04/12 00:25:12;;;;;;;16.02;7.65;;;11.60;71.20;;;;;;4900452;29;20189;-83
2021/04/12 00:27:58;;;;;;;13.15;8.00;;;11.60;71.20;;;;;;4900883;29;20176;-84
2021/04/12 00:30:33;;;;;;;14.90;7.87;;;11.50;71.70;;;;;;4899864;29;20185;-84
2021/04/12 00:33:31;;;;;;;13.65;8.02;;;11.50;72.30;;;;;;4900052;29;20205;-85
2021/04/12 00:36:10;;;;;;;14.18;8.25;;;11.50;72.60;;;;;;4900838;29;20200;-84
2021/04/12 00:38:55;;;;;;;13.45;8.25;;;11.50;72.50;;;;;;4900563;29;20189;-85
2021/04/12 00:41:35;;;;;;;14.83;8.33;;;11.50;72.60;;;;;;4898869;29;20200;-84
2021/04/12 00:44:13;;;;;;;20.43;9.03;;;11.50;73.00;;;;;;4900571;29;20185;-85
2021/04/12 00:47:13;;;;;;;17.67;8.95;;;11.50;72.70;;;;;;4900370;29;20181;-84
2021/04/12 00:49:41;;;;;;;17.20;9.17;;;11.40;73.20;;;;;;4898971;29;20260;-84
2021/04/12 00:52:38;;;;;;;15.77;9.20;;;11.40;73.10;;;;;;4900549;29;20200;-83
2021/04/12 00:55:25;;;;;;;15.90;8.60;;;11.40;73.30;;;;;;4899342;29;20178;-83
2021/04/12 00:58:17;;;;;;;20.37;9.17;;;11.40;74.00;;;;;;4899951;29;20189;-84
2021/04/12 01:01:06;;;;;;;15.60;9.20;;;11.40;73.60;;;;;;4899932;29;20173;-86
2021/04/12 01:03:35;;;;;;;16.70;9.67;;;11.40;74.10;;;;;;4898229;29;20288;-83
2021/04/12 01:06:13;;;;;;;13.90;9.10;;;11.40;74.50;;;;;;4899822;29;20188;-84
2021/04/12 01:08:53;;;;;;;19.25;9.35;;;11.40;75.20;;;;;;4899726;29;20180;-83
2021/04/12 01:12:09;;;;;;;13.73;8.27;;;11.40;75.80;;;;;;4900151;29;20204;-84
2021/04/12 01:15:00;;;;;;;13.80;8.97;;;11.40;76.00;;;;;;4897791;29;20208;-85
2021/04/12 01:17:51;;;;;;;14.10;8.80;;;11.40;76.40;;;;;;4898087;29;20268;-84
2021/04/12 01:20:46;;;;;;;16.57;8.27;;;11.40;76.80;;;;;;4899148;29;20185;-84
2021/04/12 01:23:21;;;;;;;16.50;9.00;;;11.40;77.00;;;;;;4899768;29;20233;-83
2021/04/12 01:26:32;;;;;;;15.03;8.40;;;11.40;76.90;;;;;;4899219;29;20647;-83
2021/04/12 01:29:35;;;;;;;18.73;8.13;;;11.50;77.20;;;;;;4899155;29;20217;-84
2021/04/12 01:32:30;;;;;;;19.73;7.97;;;11.50;77.30;;;;;;4899247;29;20189;-83
2021/04/12 01:35:20;;;;;;;13.45;7.38;;;11.50;77.40;;;;;;4899001;29;20177;-82
2021/04/12 01:38:01;;;;;;;16.43;8.27;;;11.60;77.30;;;;;;4897714;29;20216;-83
2021/04/12 01:40:39;;;;;;;11.17;7.40;;;11.70;77.40;;;;;;4897587;29;20200;-83
2021/04/12 01:43:23;;;;;;;11.88;7.43;;;11.60;76.90;;;;;;4898188;29;20272;-83
2021/04/12 01:46:31;;;;;;;17.80;6.53;;;11.70;77.00;;;;;;4898685;29;20188;-83
2021/04/12 01:49:10;;;;;;;14.13;7.18;;;11.80;76.60;;;;;;4896581;29;20697;-83
2021/04/12 01:51:55;;;;;;;11.33;6.77;;;11.90;76.60;;;;;;4911379;29;20196;-82
2021/04/12 01:54:37;;;;;;;13.57;7.00;;;13.00;77.50;;;;;;4897793;29;20237;-82
2021/04/12 01:57:31;;;;;;;16.17;6.80;;;11.90;76.60;;;;;;4897213;29;20276;-83
2021/04/12 02:00:27;;;;;;;12.60;7.03;;;11.90;76.80;;;;;;4898209;29;20181;-84
2021/04/12 02:03:18;;;;;;;13.15;6.72;;;11.90;77.50;;;;;;4897777;29;20189;-85
2021/04/12 02:06:04;;;;;;;17.30;6.45;;;11.90;77.40;;;;;;4899170;29;20181;-84
2021/04/12 02:08:48;;;;;;;13.60;7.43;;;11.90;77.50;;;;;;4899370;29;20173;-83
2021/04/12 02:11:32;;;;;;;10.55;6.60;;;11.80;77.50;;;;;;4898398;29;20193;-84
2021/04/12 02:14:19;;;;;;;10.80;6.32;;;11.90;77.50;;;;;;4897829;29;20256;-83
2021/04/12 02:17:16;;;;;;;11.27;6.45;;;11.90;77.80;;;;;;4898520;29;20181;-84
2021/04/12 02:19:59;;;;;;;13.45;7.00;;;11.90;78.40;;;;;;4898839;29;20177;-82
2021/04/12 02:22:46;;;;;;;10.55;6.13;;;11.90;78.30;;;;;;4897523;29;20238;-82
2021/04/12 02:25:26;;;;;;;12.23;6.35;;;11.90;78.10;;;;;;4899154;29;20184;-84
2021/04/12 02:28:30;;;;;;;13.38;6.07;;;11.90;78.40;;;;;;4898190;29;20506;-84
2021/04/12 02:31:24;;;;;;;12.40;6.43;;;11.90;78.90;;;;;;4898305;29;20204;-83
2021/04/12 02:33:58;;;;;;;13.90;6.85;;;12.00;78.40;;;;;;4896595;29;20269;-83
2021/04/12 02:36:33;;;;;;;11.85;6.43;;;12.00;78.40;;;;;;4898558;29;20180;-83
2021/04/12 02:39:06;;;;;;;11.30;6.73;;;12.00;79.10;;;;;;4898469;29;20169;-82
2021/04/12 02:41:38;;;;;;;18.58;6.97;;;12.00;79.10;;;;;;4899045;29;20166;-83
2021/04/12 02:44:32;;;;;;;14.85;6.88;;;11.90;79.30;;;;;;4898471;29;20220;-83
2021/04/12 02:47:22;;;;;;;10.33;6.60;;;11.90;79.70;;;;;;4898188;29;20199;-82
2021/04/12 02:50:01;;;;;;;11.50;6.78;;;11.80;80.20;;;;;;4896998;29;20752;-84
2021/04/12 02:52:42;;;;;;;9.73;6.53;;;11.80;80.80;;;;;;4900668;29;20209;-83
2021/04/12 02:55:35;;;;;;;13.50;7.13;;;11.70;80.80;;;;;;4902487;29;20592;-83
2021/04/12 02:58:12;;;;;;;10.15;6.65;;;11.70;81.30;;;;;;4911863;29;20189;-80
2021/04/12 03:01:01;;;;;;;12.77;6.90;;;11.70;81.60;;;;;;4925714;29;20192;-83
2021/04/12 03:03:48;;;;;;;14.75;7.45;;;11.60;81.90;;;;;;4909968;29;20208;-84
2021/04/12 03:06:52;;;;;;;9.73;6.88;;;11.50;82.10;;;;;;4903003;29;20185;-83
2021/04/12 03:09:39;;;;;;;12.00;7.43;;;11.50;82.30;;;;;;4900976;29;20285;-83
2021/04/12 03:12:43;;;;;;;16.40;7.30;;;11.40;83.60;;;;;;4900622;29;20189;-81
2021/04/12 03:15:32;;;;;;;13.23;7.80;;;11.30;85.30;;;;;;4901075;29;20232;-83
2021/04/12 03:18:28;;;;;;;14.07;7.90;;;11.20;86.60;;;;;;4900841;29;20184;-82
2021/04/12 03:21:12;;;;;;;12.53;7.60;;;11.10;87.50;;;;;;4901084;29;20553;-85
2021/04/12 03:24:25;;;;;;;13.90;8.20;;;10.90;88.50;;;;;;4902577;29;20186;-82
2021/04/12 03:27:08;;;;;;;15.93;8.63;;;10.80;90.00;;;;;;4900119;29;20181;-85
2021/04/12 03:29:52;;;;;;;15.83;8.00;;;10.80;90.50;;;;;;4902914;29;20197;-83
2021/04/12 03:32:33;;;;;;;16.03;8.87;;;10.70;90.90;;;;;;4901780;29;20181;-83
2021/04/12 03:35:09;;;;;;;14.77;8.70;;;10.60;91.40;;;;;;4900415;29;20566;-83
2021/04/12 03:37:36;;;;;;;16.80;8.97;;;10.60;91.90;;;;;;4903830;29;20200;-83
2021/04/12 03:40:12;;;;;;;14.90;8.73;;;10.60;92.50;;;;;;4901997;29;20705;-83
2021/04/12 03:42:43;;;;;;;12.43;7.97;;;10.50;92.70;;;;;;4902721;29;20263;-84
2021/04/12 03:45:34;;;;;;;17.40;9.80;;;10.50;93.50;;;;;;4901975;29;20197;-83
2021/04/12 03:48:05;;;;;;;15.37;8.37;;;10.40;93.10;;;;;;4901942;29;20177;-84
2021/04/12 03:50:55;;;;;;;14.50;9.30;;;10.40;93.30;;;;;;4901424;29;20181;-84
2021/04/12 03:53:58;;;;;;;18.73;8.70;;;10.30;93.30;;;;;;4902218;29;20205;-84
2021/04/12 03:56:45;;;;;;;19.10;8.80;;;10.30;93.20;;;;;;4902572;29;20265;-84
2021/04/12 03:59:20;;;;;;;17.63;9.33;;;10.30;93.00;;;;;;4901174;29;20193;-85
2021/04/12 04:01:45;;;;;;;19.80;9.90;;;10.30;92.90;;;;;;4900394;29;20228;-84
2021/04/12 04:04:35;;;;;;;13.27;8.77;;;10.30;92.40;;;;;;4900441;29;20192;-84
2021/04/12 04:07:13;;;;;;;14.23;9.00;;;10.40;91.40;;;;;;4899826;29;20193;-84
2021/04/12 04:09:50;;;;;;;17.80;9.47;;;10.40;90.40;;;;;;4901181;29;20252;-84
2021/04/12 04:12:16;;;;;;;19.77;9.27;;;10.40;90.20;;;;;;4901059;29;20237;-84
2021/04/12 04:14:53;;;;;;;17.87;9.23;;;10.40;90.40;;;;;;4899969;29;20189;-83
2021/04/12 04:17:48;;;;;;;17.30;8.87;;;10.40;90.10;;;;;;4901860;29;20264;-85
2021/04/12 04:20:48;;;;;;;16.00;9.20;;;10.40;90.40;;;;;;4900292;29;20178;-85
2021/04/12 04:23:47;;;;;;;22.07;10.30;;;10.40;90.50;;;;;;4896308;29;21221;-85
2021/04/12 04:26:36;;;;;;;16.60;9.33;;;10.40;90.40;;;;;;4898822;29;20221;-85
2021/04/12 04:29:39;;;;;;;18.60;10.53;;;10.30;90.80;;;;;;4890585;29;20261;-85
2021/04/12 04:32:34;;;;;;;16.37;9.80;;;10.30;91.30;;;;;;4896773;29;20648;-85
2021/04/12 04:35:15;;;;;;;18.90;10.67;;;10.30;92.10;;;;;;4898682;29;20224;-84
2021/04/12 04:37:53;;;;;;;21.57;10.83;;;10.20;92.70;;;;;;4889007;29;20185;-84
2021/04/12 04:40:40;;;;;;;17.90;10.70;;;10.10;93.20;;;;;;4898919;29;20246;-85
2021/04/12 04:43:21;;;;;;;16.47;10.00;;;10.10;94.10;;;;;;4889587;29;20197;-85
2021/04/12 04:45:52;;;;;;;24.50;11.67;;;10.00;94.30;;;;;;4897375;29;20188;-84
2021/04/12 04:48:52;;;;;;;22.77;11.40;;;10.00;94.80;;;;;;4898125;29;20185;-85
2021/04/12 04:51:42;;;;;;;23.73;11.00;;;10.00;94.70;;;;;;4895560;29;20181;-84
2021/04/12 04:54:30;;;;;;;22.60;11.47;;;10.00;95.10;;;;;;4887535;29;20251;-85
2021/04/12 04:57:04;;;;;;;24.23;11.33;;;10.10;94.80;;;;;;4897651;29;20265;-84
2021/04/12 04:59:46;;;;;;;19.63;11.30;;;10.10;95.00;;;;;;4898774;29;20673;-84
2021/04/12 05:02:43;;;;;;;20.33;10.80;;;10.20;95.40;;;;;;4889699;29;20189;-85
2021/04/12 05:05:24;;;;;;;18.53;9.77;;;10.20;95.50;;;;;;4887193;29;20252;-84
2021/04/12 05:07:55;;;;;;;24.43;11.23;;;10.20;95.30;;;;;;4888235;29;20208;-86
2021/04/12 05:10:44;;;;;;;25.50;11.60;;;10.20;96.00;;;;;;4892749;29;20237;-83
2021/04/12 05:13:35;;;;;;;21.17;11.20;;;10.20;95.80;;;;;;4881506;29;20720;-85
2021/04/12 05:16:30;;;;;;;22.80;10.30;;;10.30;95.60;;;;;;4895430;29;20197;-84
2021/04/12 05:19:15;;;;;;;21.50;9.73;;;10.30;95.80;;;;;;4897918;29;20227;-85
2021/04/12 05:22:09;;;;;;;24.10;10.50;;;10.40;95.30;;;;;;4895789;29;21860;-86
2021/04/12 05:24:50;;;;;;;22.10;10.83;;;10.50;95.40;;;;;;4894821;29;20276;-84
2021/04/12 05:27:49;;;;;;;23.80;11.37;;;10.60;94.90;;;;;;4897381;29;20268;-85
2021/04/12 05:30:38;;;;;;;21.93;10.93;;;10.70;94.60;;;;;;4896515;29;20185;-84
2021/04/12 05:33:20;;;;;;;18.80;11.00;;;10.80;93.70;;;;;;4907418;29;20229;-85
2021/04/12 05:36:12;;;;;;;19.70;10.30;;;10.90;93.00;;;;;;4879676;29;20667;-84
2021/04/12 05:38:47;;;;;;;17.93;10.57;;;11.10;91.90;;;;;;4884677;29;20647;-84
2021/04/12 05:41:22;;;;;;;14.90;9.57;;;11.20;91.70;;;;;;4887151;29;20658;-84
2021/04/12 05:44:12;;;;;;;17.47;9.83;;;11.30;90.70;;;;;;4882208;29;20189;-85
2021/04/12 05:47:10;;;;;;;18.27;8.83;;;11.40;89.90;;;;;;4887827;29;20264;-84
2021/04/12 05:50:18;;;;;;;17.70;8.87;;;11.50;89.00;;;;;;4890486;29;20276;-84
2021/04/12 05:53:06;;;;;;;19.75;9.68;;;11.60;86.50;;;;;;4895799;29;20754;-84
2021/04/12 05:55:53;;;;;;;15.60;8.87;;;11.60;85.50;;;;;;4888894;29;20192;-85
2021/04/12 05:58:37;;;;;;;18.33;8.90;;;11.70;84.70;;;;;;4895443;29;20551;-85
2021/04/12 06:01:24;;;;;;;17.70;8.93;;;11.80;84.20;;;;;;4896501;29;20192;-85
2021/04/12 06:04:17;;;;;;;16.53;9.03;;;11.90;83.70;;;;;;4888470;29;20200;-85
2021/04/12 06:06:52;;;;;;;18.30;9.77;;;12.00;83.40;;;;;;4896392;29;20189;-85
2021/04/12 06:09:40;;;;;;;14.38;8.27;;;12.10;82.10;;;;;;4895140;29;20243;-86
2021/04/12 06:12:25;;;;;;;16.83;8.50;;;12.10;82.20;;;;;;4896761;29;20196;-85
2021/04/12 06:15:00;;;;;;;21.73;9.65;;;12.10;80.20;;;;;;4895862;29;20185;-85
2021/04/12 06:17:43;;;;;;;15.95;8.80;;;12.10;80.50;;;;;;4896860;29;20660;-85
2021/04/12 06:20:54;;;;;;;14.60;8.60;;;12.20;79.80;;;;;;4896461;29;20601;-85
2021/04/12 06:24:01;;;;;;;15.40;8.60;;;12.20;79.70;;;;;;4910594;29;20193;-84
2021/04/12 06:26:36;;;;;;;18.02;9.23;;;12.30;78.20;;;;;;4895184;29;20184;-84
2021/04/12 06:29:14;;;;;;;18.98;9.18;;;12.30;79.20;;;;;;4897601;29;20181;-85
2021/04/12 06:31:48;;;;;;;28.50;10.20;;;12.40;79.00;;;;;;4897415;29;20201;-85
2021/04/12 06:34:48;;;;;;;18.15;8.55;;;12.40;78.30;;;;;;4896125;29;20240;-85
2021/04/12 06:37:28;;;;;;;16.00;8.50;;;12.50;78.90;;;;;;4894252;29;20189;-86
2021/04/12 06:40:32;;;;;;;19.67;9.18;;;12.60;78.00;;;;;;4899425;29;20189;-86
2021/04/12 06:43:19;;;;;;;21.45;8.88;;;12.60;77.20;;;;;;4899430;29;20216;-84
2021/04/12 06:46:05;;;;;;;18.33;8.80;;;12.80;77.80;;;;;;4901347;29;20215;-86
2021/04/12 06:48:52;;;;;;;15.63;8.65;;;12.80;76.70;;;;;;4889010;29;20239;-84
2021/04/12 06:51:45;;;;;;;17.15;8.52;;;12.90;76.30;;;;;;4897780;29;20181;-85
2021/04/12 06:54:29;;;;;;;24.63;8.65;;;13.00;76.40;;;;;;4898312;29;20225;-86
2021/04/12 06:57:04;;;;;;;12.80;8.55;;;13.10;74.80;;;;;;4898160;29;20241;-85
2021/04/12 06:59:57;;;;;;;19.27;9.13;;;13.20;74.10;;;;;;4897932;29;20181;-87
2021/04/12 07:02:57;;;;;;;13.82;8.57;;;13.30;74.00;;;;;;4898039;29;20687;-85
2021/04/12 07:05:50;;;;;;;17.85;9.32;;;13.40;74.10;;;;;;4896605;29;20520;-87
2021/04/12 07:08:16;;;;;;;13.68;8.98;;;13.60;72.70;;;;;;4898681;29;20208;-86
2021/04/12 07:11:19;;;;;;;19.40;8.68;;;13.80;72.40;;;;;;4897413;29;20233;-87
2021/04/12 07:14:22;;;;;;;17.80;9.05;;;13.80;72.10;;;;;;4897144;29;20262;-87
2021/04/12 07:17:13;;;;;;;18.13;9.32;;;14.00;70.50;;;;;;4896536;29;20209;-86
2021/04/12 07:20:03;;;;;;;17.30;8.63;;;14.20;70.00;;;;;;4884771;29;20185;-87
2021/04/12 07:22:53;;;;;;;17.00;9.35;;;14.50;69.70;;;;;;4895709;29;20192;-90
2021/04/12 07:25:56;;;;;;;14.90;8.73;;;14.70;68.90;;;;;;4894771;29;20181;-90
2021/04/12 07:29:00;;;;;;;22.30;12.10;;;14.90;68.20;;;;;;4895107;29;20192;-89
2021/04/12 07:31:37;;;;;;;11.10;7.05;;;15.20;66.80;;;;;;4894633;29;20213;-87
2021/04/12 07:34:31;;;;;;;13.13;7.78;;;15.40;64.80;;;;;;4894385;29;20251;-88
2021/04/12 07:37:18;;;;;;;12.20;7.32;;;15.50;64.90;;;;;;4893845;29;20181;-89
2021/04/12 07:39:44;;;;;;;12.63;7.43;;;15.50;63.90;;;;;;4899613;29;20310;-86
2021/04/12 07:42:47;;;;;;;18.85;8.43;;;15.60;63.00;;;;;;4901686;29;20227;-87
2021/04/12 07:45:55;;;;;;;11.32;7.18;;;15.70;64.90;;;;;;4901207;29;20180;-86
2021/04/12 07:48:58;;;;;;;15.23;8.45;;;15.80;64.20;;;;;;4903123;29;20177;-87
2021/04/12 07:51:45;;;;;;;16.33;6.90;;;15.80;63.30;;;;;;4901735;29;20644;-88
2021/04/12 07:54:19;;;;;;;19.15;9.52;;;15.80;65.00;;;;;;4899171;29;20216;-88
2021/04/12 07:56:57;;;;;;;12.85;6.95;;;15.80;65.20;;;;;;4900367;29;20658;-88
2021/04/12 07:59:50;;;;;;;19.02;7.63;;;16.00;63.10;;;;;;4901492;29;20214;-88
2021/04/12 08:02:34;;;;;;;18.35;8.63;;;16.10;61.90;;;;;;4899735;29;20189;-88
2021/04/12 08:05:41;;;;;;;11.43;6.70;;;16.20;64.10;;;;;;4910298;29;20181;-86
2021/04/12 08:08:44;;;;;;;17.10;7.53;;;16.50;61.70;;;;;;4924265;29;20180;-88
2021/04/12 08:11:43;;;;;;;23.17;7.22;;;16.70;62.20;;;;;;4917909;29;20204;-88
2021/04/12 08:14:39;;;;;;;15.10;6.60;;;16.80;60.40;;;;;;4897915;29;20730;-89
2021/04/12 08:17:24;;;;;;;15.63;6.60;;;16.80;61.30;;;;;;4904472;29;20196;-89
2021/04/12 08:20:26;;;;;;;12.18;6.18;;;16.70;61.00;;;;;;4900497;29;20197;-86
2021/04/12 08:23:11;;;;;;;10.98;6.03;;;16.60;60.90;;;;;;4901113;29;20554;-87
2021/04/12 08:26:27;;;;;;;10.85;6.47;;;16.50;61.20;;;;;;4897920;29;20189;-87
2021/04/12 08:29:23;;;;;;;9.50;6.30;;;16.40;61.30;;;;;;4898049;29;20206;-87
2021/04/12 08:32:08;;;;;;;16.10;7.25;;;16.30;61.60;;;;;;4897974;29;20325;-87
2021/04/12 08:35:03;;;;;;;9.68;6.88;;;16.30;62.30;;;;;;4898575;29;20224;-86
2021/04/12 08:37:37;;;;;;;15.20;6.65;;;16.20;62.40;;;;;;4898870;29;20659;-87
2021/04/12 08:40:33;;;;;;;12.82;6.10;;;16.40;61.20;;;;;;4899781;29;20177;-87
2021/04/12 08:43:01;;;;;;;27.38;7.25;;;16.40;61.80;;;;;;4899719;29;20208;-87
2021/04/12 08:46:02;;;;;;;14.38;6.30;;;16.50;61.30;;;;;;4900914;29;20173;-86
2021/04/12 08:49:04;;;;;;;17.92;7.22;;;16.50;61.30;;;;;;4900783;29;20276;-87
2021/04/12 08:51:45;;;;;;;19.25;6.78;;;16.70;62.70;;;;;;4900704;29;20259;-88
2021/04/12 08:54:20;;;;;;;20.40;7.55;;;16.90;60.40;;;;;;4903464;29;20308;-88
2021/04/12 08:56:54;;;;;;;14.50;7.00;;;17.00;60.10;;;;;;4899650;29;20185;-89
2021/04/12 08:59:26;;;;;;;15.90;6.18;;;17.10;60.50;;;;;;4901165;29;20698;-88
2021/04/12 09:02:07;;;;;;;15.50;6.18;;;17.10;61.10;;;;;;4898749;29;20220;-88
2021/04/12 09:04:51;;;;;;;9.57;4.28;;;17.30;59.60;;;;;;4900384;29;20184;-88
2021/04/12 09:07:35;;;;;;;9.98;4.50;;;17.40;58.40;;;;;;4900637;29;20178;-88
2021/04/12 09:10:26;;;;;;;9.05;4.22;;;17.60;57.60;;;;;;4900065;29;20671;-88
2021/04/12 09:13:04;;;;;;;5.20;3.58;;;17.60;55.70;;;;;;4900254;29;20272;-88
2021/04/12 09:15:41;;;;;;;12.27;3.72;;;17.80;55.80;;;;;;4900517;29;20231;-89
2021/04/12 09:18:22;;;;;;;6.18;3.50;;;18.00;55.40;;;;;;4902466;29;20540;-87
2021/04/12 09:21:08;;;;;;;9.40;3.58;;;18.10;54.60;;;;;;4898782;29;20166;-88
2021/04/12 09:24:11;;;;;;;9.55;3.83;;;18.20;54.60;;;;;;4897470;29;20193;-88
2021/04/12 09:26:43;;;;;;;8.70;4.00;;;18.20;54.60;;;;;;4899273;29;20181;-89
2021/04/12 09:29:14;;;;;;;8.82;4.15;;;18.40;55.70;;;;;;4898866;29;20185;-89
2021/04/12 09:32:04;;;;;;;7.45;4.15;;;18.50;54.80;;;;;;4897785;29;20185;-89
2021/04/12 09:34:42;;;;;;;6.97;4.05;;;18.60;54.90;;;;;;4898972;29;20220;-89
2021/04/12 09:37:26;;;;;;;9.25;4.40;;;18.70;53.90;;;;;;4900391;29;20173;-90
2021/04/12 09:40:12;;;;;;;8.80;3.83;;;18.70;53.80;;;;;;4899730;29;20196;-89
2021/04/12 09:43:11;;;;;;;9.25;4.10;;;18.60;54.30;;;;;;4898340;29;20195;-88
2021/04/12 09:46:04;;;;;;;11.70;4.05;;;18.60;54.90;;;;;;4898933;29;20220;-87
2021/04/12 09:48:44;;;;;;;7.63;4.10;;;18.80;54.60;;;;;;4898721;29;20189;-89
2021/04/12 09:51:09;;;;;;;9.45;4.13;;;18.90;54.10;;;;;;4900092;29;20208;-91
2021/04/12 09:53:56;;;;;;;6.28;4.07;;;19.00;54.60;;;;;;4898455;29;20345;-91
2021/04/12 09:56:40;;;;;;;10.55;3.88;;;19.10;54.10;;;;;;4887567;29;20197;-90
2021/04/12 09:59:38;;;;;;;10.43;3.90;;;19.30;54.20;;;;;;4898944;29;20192;-91
2021/04/12 10:02:16;;;;;;;4.53;3.05;;;19.20;53.10;;;;;;4897089;29;20181;-89
2021/04/12 10:05:23;;;;;;;18.63;3.40;;;19.20;52.90;;;;;;4898900;29;20778;-90
2021/04/12 10:08:07;;;;;;;19.77;4.15;;;19.20;53.40;;;;;;4900607;29;20738;-91
2021/04/12 10:10:55;;;;;;;8.07;3.33;;;19.00;53.80;;;;;;4899054;29;20705;-92
2021/04/12 10:13:34;;;;;;;5.63;2.78;;;19.30;53.20;;;;;;4897460;29;20221;-90
2021/04/12 10:16:22;;;;;;;8.70;3.35;;;18.90;52.60;;;;;;4900456;29;20200;-91
2021/04/12 10:19:12;;;;;;;10.35;3.08;;;18.90;52.50;;;;;;4894819;29;20220;-88
2021/04/12 10:22:05;;;;;;;8.50;2.95;;;19.10;54.50;;;;;;4903721;29;20193;-89
2021/04/12 10:24:50;;;;;;;11.27;3.78;;;19.60;55.20;;;;;;4900268;29;20204;-90
2021/04/12 10:27:40;;;;;;;7.32;4.13;;;19.80;53.90;;;;;;4897987;29;20192;-88
2021/04/12 10:30:30;;;;;;;10.48;3.85;;;19.80;53.50;;;;;;4898112;29;20188;-88
2021/04/12 10:33:07;;;;;;;6.40;3.55;;;19.60;53.80;;;;;;4897825;29;20288;-89
2021/04/12 10:36:03;;;;;;;5.72;3.15;;;19.60;54.60;;;;;;4897682;29;20187;-89
2021/04/12 10:38:55;;;;;;;9.63;3.30;;;19.80;54.40;;;;;;4897994;29;20659;-89
2021/04/12 10:41:43;;;;;;;8.35;3.95;;;20.10;52.80;;;;;;4884958;29;20203;-92
2021/04/12 10:44:31;;;;;;;7.93;3.17;;;20.10;53.40;;;;;;4890803;29;20181;-89
2021/04/12 10:47:05;;;;;;;8.95;4.03;;;20.00;52.80;;;;;;4885814;29;20558;-87
2021/04/12 10:50:02;;;;;;;7.93;3.72;;;19.90;53.50;;;;;;4891972;29;20315;-88
2021/04/12 10:52:56;;;;;;;8.02;3.55;;;19.70;53.30;;;;;;4876504;29;20170;-88
2021/04/12 10:55:26;;;;;;;9.48;3.90;;;19.60;53.50;;;;;;4877080;29;20186;-87
2021/04/12 10:58:24;;;;;;;8.73;3.47;;;19.30;53.60;;;;;;4877050;29;20178;-88
2021/04/12 11:01:11;;;;;;;7.47;3.35;;;19.30;53.90;;;;;;4876877;29;20189;-87
2021/04/12 11:04:01;;;;;;;8.48;3.25;;;19.20;53.60;;;;;;4877569;29;20276;-87
2021/04/12 11:06:49;;;;;;;9.32;3.70;;;19.20;54.20;;;;;;4878732;29;20295;-87
2021/04/12 11:09:33;;;;;;;7.22;3.35;;;19.40;54.00;;;;;;4892706;29;20277;-87
2021/04/12 11:12:08;;;;;;;5.90;3.08;;;19.60;54.50;;;;;;4878723;29;20179;-87
2021/04/12 11:14:39;;;;;;;8.98;3.63;;;19.80;53.20;;;;;;4883048;29;20242;-87
2021/04/12 11:17:28;;;;;;;8.68;3.60;;;19.80;53.70;;;;;;4882473;29;20210;-87
2021/04/12 11:20:42;;;;;;;5.18;3.30;;;19.60;52.70;;;;;;4881221;29;20186;-87
2021/04/12 11:23:13;;;;;;;9.30;3.75;;;19.40;54.20;;;;;;4892045;29;20208;-87
2021/04/12 11:25:53;;;;;;;5.43;3.40;;;19.40;55.10;;;;;;4899659;29;20244;-87
2021/04/12 11:28:37;;;;;;;5.43;2.85;;;19.40;54.40;;;;;;4895518;29;20185;-85
2021/04/12 11:31:34;;;;;;;6.63;2.85;;;19.30;54.50;;;;;;4899448;29;20276;-87
2021/04/12 11:34:17;;;;;;;9.40;4.05;;;19.10;54.20;;;;;;4899395;29;20217;-87
2021/04/12 11:37:02;;;;;;;8.88;3.30;;;19.10;55.30;;;;;;4899133;29;20178;-87
2021/04/12 11:39:32;;;;;;;10.35;3.45;;;19.20;55.10;;;;;;4899009;29;20520;-87
2021/04/12 11:42:07;;;;;;;8.00;3.20;;;19.20;54.40;;;;;;4900127;29;20177;-87
2021/04/12 11:44:48;;;;;;;7.20;3.20;;;19.20;55.80;;;;;;4897593;29;20279;-87
2021/04/12 11:47:20;;;;;;;7.85;3.35;;;19.20;55.20;;;;;;4898532;29;20193;-87
2021/04/12 11:50:04;;;;;;;5.85;3.72;;;19.20;54.30;;;;;;4899803;29;20567;-86
2021/04/12 11:53:22;;;;;;;8.80;3.00;;;19.20;54.60;;;;;;4900345;29;20196;-88
2021/04/12 11:56:10;;;;;;;6.90;3.63;;;19.20;54.60;;;;;;4893692;29;20201;-87
2021/04/12 11:58:51;;;;;;;7.78;3.72;;;19.10;55.10;;;;;;4897276;29;20196;-88
2021/04/12 12:01:48;;;;;;;7.22;3.85;;;18.90;54.90;;;;;;4894775;29;20189;-87
2021/04/12 12:04:23;;;;;;;10.65;3.90;;;18.80;55.30;;;;;;4892306;29;20216;-87
2021/04/12 12:07:36;;;;;;;5.78;2.92;;;18.90;56.10;;;;;;4898975;29;20235;-87
2021/04/12 12:10:39;;;;;;;9.15;3.33;;;19.10;55.70;;;;;;4891911;29;20352;-86
2021/04/12 12:13:32;;;;;;;9.38;3.55;;;19.40;54.30;;;;;;4873843;29;20213;-88
2021/04/12 12:16:26;;;;;;;7.63;3.38;;;19.40;54.10;;;;;;4897921;29;20233;-86
2021/04/12 12:19:08;;;;;;;7.75;3.35;;;19.50;54.90;;;;;;4899317;29;20214;-86
2021/04/12 12:21:44;;;;;;;8.00;3.10;;;19.40;54.70;;;;;;4899546;29;20535;-87
2021/04/12 12:24:35;;;;;;;8.80;3.80;;;19.50;54.40;;;;;;4896902;29;20193;-87
2021/04/12 12:27:11;;;;;;;8.88;4.43;;;19.40;54.60;;;;;;4896995;29;20188;-84
2021/04/12 12:29:46;;;;;;;11.32;3.58;;;19.30;54.80;;;;;;4897671;29;20272;-85
2021/04/12 12:32:24;;;;;;;9.02;4.15;;;19.30;55.10;;;;;;4894457;29;20336;-85
2021/04/12 12:35:06;;;;;;;10.80;3.38;;;19.20;54.90;;;;;;4884412;29;20684;-85
2021/04/12 12:37:38;;;;;;;7.35;2.97;;;19.30;54.90;;;;;;4896013;29;20259;-85
2021/04/12 12:40:20;;;;;;;8.27;3.40;;;19.20;54.10;;;;;;4897629;29;20554;-85
2021/04/12 12:42:50;;;;;;;7.82;3.30;;;19.10;55.20;;;;;;4897671;29;20273;-85
2021/04/12 12:45:21;;;;;;;8.52;3.50;;;19.10;55.20;;;;;;4898799;29;20208;-84
2021/04/12 12:47:54;;;;;;;8.10;3.80;;;19.20;55.20;;;;;;4898465;29;20197;-85
2021/04/12 12:50:27;;;;;;;8.20;3.50;;;19.10;55.80;;;;;;4894931;29;20280;-85
2021/04/12 12:53:01;;;;;;;10.02;3.67;;;19.10;55.10;;;;;;4897503;29;20244;-86
2021/04/12 12:55:50;;;;;;;6.90;3.95;;;19.30;55.00;;;;;;4898484;29;20181;-86
2021/04/12 12:58:29;;;;;;;12.65;4.47;;;19.30;55.60;;;;;;4896072;29;20217;-83
2021/04/12 13:00:59;;;;;;;6.45;3.00;;;19.50;54.60;;;;;;4896658;29;20189;-85
2021/04/12 13:03:42;;;;;;;6.28;3.50;;;19.70;54.20;;;;;;4898297;29;20190;-85
2021/04/12 13:06:35;;;;;;;9.45;3.75;;;20.00;54.10;;;;;;4896894;29;20193;-86
2021/04/12 13:09:14;;;;;;;8.65;3.78;;;20.10;53.20;;;;;;4895361;29;20245;-86
2021/04/12 13:11:45;;;;;;;9.02;3.67;;;20.00;53.70;;;;;;4896020;29;20262;-84
2021/04/12 13:14:19;;;;;;;8.80;4.18;;;19.90;53.20;;;;;;4898801;29;20224;-87
2021/04/12 13:16:45;;;;;;;11.80;4.50;;;19.90;53.30;;;;;;4897999;29;20189;-84
2021/04/12 13:19:13;;;;;;;8.30;4.18;;;19.90;54.40;;;;;;4913359;29;20705;-84
2021/04/12 13:21:43;;;;;;;17.33;4.07;;;20.00;53.90;;;;;;4921732;29;20169;-84
2021/04/12 13:24:26;;;;;;;10.52;4.65;;;20.00;53.90;;;;;;4919573;29;20265;-85
2021/04/12 13:27:14;;;;;;;12.10;4.60;;;20.00;54.70;;;;;;4899506;29;20272;-85
2021/04/12 13:29:51;;;;;;;6.80;3.42;;;19.90;53.30;;;;;;4898552;29;20181;-84
2021/04/12 13:32:34;;;;;;;14.00;3.40;;;19.80;53.60;;;;;;4898630;29;20185;-85
2021/04/12 13:35:15;;;;;;;13.98;3.85;;;19.80;53.50;;;;;;4897513;29;20778;-85
2021/04/12 13:37:48;;;;;;;10.10;3.83;;;19.90;52.90;;;;;;4896184;29;20185;-87
2021/04/12 13:40:51;;;;;;;9.98;4.00;;;19.90;53.70;;;;;;4896553;29;20185;-85
2021/04/12 13:43:19;;;;;;;7.63;3.88;;;19.90;53.40;;;;;;4893878;29;20205;-87
2021/04/12 13:45:49;;;;;;;8.77;3.30;;;19.90;53.30;;;;;;4892185;29;20200;-87
2021/04/12 13:48:27;;;;;;;6.53;3.67;;;20.70;53.80;;;;;;4896493;29;20189;-86
2021/04/12 13:51:05;;;;;;;11.38;4.25;;;19.80;54.40;;;;;;4894941;29;20213;-86
2021/04/12 13:53:51;;;;;;;7.43;3.38;;;19.70;54.40;;;;;;4895913;29;20215;-86
2021/04/12 13:56:20;;;;;;;10.55;3.85;;;19.70;54.50;;;;;;4896682;29;20173;-85
2021/04/12 13:58:58;;;;;;;8.02;4.20;;;19.50;54.10;;;;;;4896396;29;20318;-87
2021/04/12 14:01:30;;;;;;;5.22;2.90;;;19.50;54.00;;;;;;4894987;29;20180;-86
2021/04/12 14:04:01;;;;;;;11.45;3.30;;;19.40;53.80;;;;;;4898470;29;20236;-86
2021/04/12 14:06:40;;;;;;;12.02;3.88;;;19.30;53.50;;;;;;4894850;29;20193;-88
2021/04/12 14:09:18;;;;;;;9.38;4.78;;;19.20;54.40;;;;;;4895062;29;20244;-85
2021/04/12 14:11:58;;;;;;;9.55;4.40;;;19.20;54.60;;;;;;4910472;29;20721;-85